Terminal Aerodrome Forecast
Issued by NWS

Home | Current Version | Previous Version | Graphics & Text | Print | Product List | Glossary On
Versions: 1 2 3 4 5 6 7 8 9 10 11 12 13 14 15 16 17
614
FTUS42 KMHX 220540
TAFOAJ
TAF
KOAJ 220540Z 2206/2306 00000KT 5SM BR SCT120 BKN200
     FM220900 VRB03KT 3/4SM BR BKN005
     FM221200 VRB03KT P6SM BKN008
     FM221300 22006KT P6SM BKN060
      AMD LTD TO CLD VIS AND WIND=

USA.gov is the U.S. government's official web portal to all federal, state and local government web resources and services.